createdAt,value
2018-03-26T00:00:04.860Z,25.03
2018-03-26T00:02:32.157Z,25.17
2018-03-26T00:04:59.399Z,25.40
2018-03-26T00:07:26.625Z,25.47
2018-03-26T00:09:54.620Z,23.10
2018-03-26T00:12:21.838Z,26.53
2018-03-26T00:14:49.075Z,29.50
2018-03-26T00:17:16.300Z,23.70
2018-03-26T00:19:43.522Z,23.67
2018-03-26T00:22:10.794Z,23.90
2018-03-26T00:24:38.060Z,23.80
2018-03-26T00:27:05.460Z,24.50
2018-03-26T00:29:32.703Z,25.87
2018-03-26T00:31:59.926Z,26.97
2018-03-26T00:34:27.152Z,27.60
2018-03-26T00:36:54.606Z,26.27
2018-03-26T00:39:21.838Z,28.80
2018-03-26T00:41:49.068Z,26.20
2018-03-26T00:44:16.367Z,25.80
2018-03-26T00:46:43.595Z,27.77
2018-03-26T00:49:10.817Z,27.00
2018-03-26T00:51:38.050Z,26.80
2018-03-26T00:54:05.277Z,29.27
2018-03-26T00:56:32.498Z,25.70
2018-03-26T00:58:59.751Z,24.13
2018-03-26T01:01:27.002Z,26.33
2018-03-26T01:03:54.235Z,25.57
2018-03-26T01:06:21.465Z,25.53
2018-03-26T01:08:48.697Z,26.03
2018-03-26T01:11:15.913Z,25.27
2018-03-26T01:13:43.151Z,26.10
2018-03-26T01:16:10.057Z,25.40
2018-03-26T01:18:37.281Z,26.30
2018-03-26T01:21:04.518Z,27.67
2018-03-26T01:23:31.762Z,26.10
2018-03-26T01:25:58.988Z,26.00
2018-03-26T01:28:26.217Z,26.53
2018-03-26T01:30:53.466Z,26.30
2018-03-26T01:33:20.689Z,28.17
2018-03-26T01:35:47.920Z,26.70
2018-03-26T01:38:15.168Z,27.17
2018-03-26T01:40:42.444Z,27.20
2018-03-26T01:43:09.752Z,27.57
2018-03-26T01:45:37.312Z,24.33
2018-03-26T01:48:04.551Z,26.93
2018-03-26T01:50:31.854Z,25.83
2018-03-26T01:52:59.381Z,26.75
2018-03-26T01:55:26.837Z,26.00
2018-03-26T01:57:54.064Z,26.40
2018-03-26T02:00:21.293Z,26.77
2018-03-26T02:02:48.811Z,24.45
2018-03-26T02:05:18.085Z,23.63
2018-03-26T02:07:45.319Z,25.33
2018-03-26T02:10:13.706Z,24.50
2018-03-26T02:12:41.274Z,27.17
2018-03-26T02:15:08.921Z,28.10
2018-03-26T02:17:36.155Z,26.13
2018-03-26T02:20:03.971Z,26.75
2018-03-26T02:22:36.690Z,27.50
2018-03-26T02:25:06.860Z,24.53
2018-03-26T02:27:41.132Z,27.43
2018-03-26T02:30:08.466Z,26.70
2018-03-26T02:32:35.998Z,25.48
2018-03-26T02:35:03.249Z,26.30
2018-03-26T02:37:30.785Z,24.92
2018-03-26T02:39:58.039Z,25.33
2018-03-26T02:42:25.550Z,27.30
2018-03-26T02:44:53.067Z,26.77
2018-03-26T02:47:20.297Z,25.27
2018-03-26T02:49:47.812Z,27.42
2018-03-26T02:52:15.343Z,26.65
2018-03-26T02:54:42.845Z,26.67
2018-03-26T02:57:10.365Z,26.27
2018-03-26T02:59:37.877Z,23.75
2018-03-26T03:02:05.417Z,24.42
2018-03-26T03:04:32.922Z,26.33
2018-03-26T03:07:00.439Z,25.67
2018-03-26T03:09:27.942Z,25.98
2018-03-26T03:11:55.456Z,24.83
2018-03-26T03:14:22.699Z,26.63
2018-03-26T03:16:49.914Z,24.10
2018-03-26T03:19:17.149Z,24.20
2018-03-26T03:21:44.677Z,24.70
2018-03-26T03:24:11.941Z,23.73
2018-03-26T03:26:39.482Z,23.92
2018-03-26T03:29:06.718Z,24.53
2018-03-26T03:31:33.934Z,25.13
2018-03-26T03:34:01.470Z,26.05
2018-03-26T03:36:28.713Z,24.40
2018-03-26T03:38:55.937Z,23.80
2018-03-26T03:41:23.455Z,24.00
2018-03-26T03:43:50.677Z,24.50
2018-03-26T03:46:17.907Z,21.83
2018-03-26T03:48:45.131Z,23.37
2018-03-26T03:51:12.353Z,22.77
2018-03-26T03:53:39.590Z,23.13
2018-03-26T03:56:06.814Z,22.37
2018-03-26T03:58:34.026Z,19.83
2018-03-26T04:01:01.258Z,22.60
2018-03-26T04:03:28.797Z,23.12
2018-03-26T04:05:56.017Z,21.50
2018-03-26T04:08:23.239Z,22.27
2018-03-26T04:10:50.478Z,20.03
2018-03-26T04:13:17.725Z,23.77
2018-03-26T04:15:44.966Z,24.20
2018-03-26T04:18:12.242Z,25.43
2018-03-26T04:20:39.485Z,24.40
2018-03-26T04:23:06.717Z,25.40
2018-03-26T04:25:33.993Z,24.73
2018-03-26T04:28:01.221Z,26.53
2018-03-26T04:30:28.453Z,27.00
2018-03-26T04:32:55.678Z,26.80
2018-03-26T04:35:22.905Z,25.33
2018-03-26T04:37:50.422Z,27.13
2018-03-26T04:40:17.944Z,27.75
2018-03-26T04:42:45.487Z,25.67
2018-03-26T04:45:15.768Z,28.30
2018-03-26T04:47:43.013Z,32.30
2018-03-26T04:50:14.963Z,42.88
2018-03-26T04:52:42.484Z,28.85
2018-03-26T04:55:14.624Z,28.98
2018-03-26T04:57:42.147Z,54.95
2018-03-26T05:00:10.674Z,25.10
2018-03-26T05:02:38.226Z,47.85
2018-03-26T05:05:11.492Z,28.27
2018-03-26T05:07:39.021Z,35.15
2018-03-26T05:10:09.976Z,38.10
2018-03-26T05:12:37.488Z,28.40
2018-03-26T05:15:07.658Z,24.63
2018-03-26T05:17:35.172Z,22.77
2018-03-26T05:20:02.682Z,25.98
2018-03-26T05:22:29.920Z,25.20
2018-03-26T05:24:57.137Z,25.80
2018-03-26T05:27:24.412Z,26.07
2018-03-26T05:29:51.895Z,27.80
2018-03-26T05:32:19.121Z,29.07
2018-03-26T05:34:46.370Z,26.57
2018-03-26T05:37:13.598Z,26.13
2018-03-26T05:39:41.166Z,25.62
2018-03-26T05:42:08.441Z,26.60
2018-03-26T05:44:35.685Z,28.87
2018-03-26T05:47:03.196Z,28.75
2018-03-26T05:49:30.715Z,27.67
2018-03-26T05:51:59.194Z,26.70
2018-03-26T05:54:26.722Z,28.75
2018-03-26T05:56:54.235Z,30.42
2018-03-26T05:59:21.887Z,28.48
2018-03-26T06:01:49.408Z,26.33
2018-03-26T06:04:18.376Z,27.05
2018-03-26T06:06:46.090Z,27.70
2018-03-26T06:09:13.609Z,28.27
2018-03-26T06:11:41.122Z,27.42
2018-03-26T06:14:08.633Z,28.48
2018-03-26T06:16:41.419Z,28.80
2018-03-26T06:19:08.832Z,27.55
2018-03-26T06:21:36.165Z,28.60
2018-03-26T06:24:03.500Z,27.92
2018-03-26T06:26:30.841Z,27.60
2018-03-26T06:28:58.165Z,28.08
2018-03-26T06:31:25.267Z,27.60
2018-03-26T06:33:52.637Z,28.05
2018-03-26T06:36:25.370Z,29.47
2018-03-26T06:38:52.419Z,26.77
2018-03-26T06:41:19.650Z,28.70
2018-03-26T06:43:46.878Z,29.20
2018-03-26T06:46:13.920Z,28.30
2018-03-26T06:48:41.210Z,27.00
2018-03-26T06:51:08.439Z,28.37
2018-03-26T06:53:35.666Z,26.67
2018-03-26T06:56:02.891Z,26.73
2018-03-26T06:58:29.921Z,26.47
2018-03-26T07:00:57.144Z,26.20
2018-03-26T07:03:24.372Z,27.20
2018-03-26T07:05:51.593Z,29.53
2018-03-26T07:08:18.844Z,26.67
2018-03-26T07:10:46.095Z,25.03
2018-03-26T07:13:13.314Z,28.27
2018-03-26T07:15:40.542Z,24.40
2018-03-26T07:18:07.761Z,26.97
2018-03-26T07:20:34.975Z,25.77
2018-03-26T07:23:02.215Z,27.20
2018-03-26T07:25:29.456Z,25.00
2018-03-26T07:27:56.680Z,24.53
2018-03-26T07:30:23.918Z,23.80
2018-03-26T07:32:51.317Z,23.83
2018-03-26T07:35:18.537Z,23.10
2018-03-26T07:37:45.761Z,26.03
2018-03-26T07:40:12.974Z,27.30
2018-03-26T07:42:40.199Z,25.53
2018-03-26T07:45:10.281Z,24.07
2018-03-26T07:47:37.510Z,26.10
2018-03-26T07:50:06.880Z,25.87
2018-03-26T07:52:34.149Z,23.80
2018-03-26T07:55:01.367Z,24.70
2018-03-26T07:57:28.590Z,27.30
2018-03-26T07:59:55.822Z,25.90
2018-03-26T08:02:23.064Z,24.30
2018-03-26T08:04:50.302Z,25.63
2018-03-26T08:07:17.549Z,25.73
2018-03-26T08:09:44.762Z,25.03
2018-03-26T08:12:11.989Z,26.07
2018-03-26T08:14:40.121Z,25.17
2018-03-26T08:17:07.394Z,25.30
2018-03-26T08:19:34.781Z,26.77
2018-03-26T08:22:02.074Z,27.93
2018-03-26T08:24:31.107Z,25.97
2018-03-26T08:26:58.342Z,26.40
2018-03-26T08:29:25.556Z,26.77
2018-03-26T08:31:52.777Z,26.53
2018-03-26T08:34:20.001Z,27.63
2018-03-26T08:37:01.477Z,28.20
2018-03-26T08:39:28.722Z,27.13
2018-03-26T08:41:56.137Z,28.00
2018-03-26T08:44:23.358Z,26.83
2018-03-26T08:46:50.600Z,27.73
2018-03-26T08:49:17.837Z,27.60
2018-03-26T08:51:45.162Z,27.60
2018-03-26T08:54:12.385Z,25.97
2018-03-26T08:56:39.633Z,29.80
2018-03-26T08:59:06.917Z,26.50
2018-03-26T09:01:34.142Z,26.30
2018-03-26T09:04:01.369Z,27.70
2018-03-26T09:06:28.596Z,28.90
2018-03-26T09:08:55.821Z,28.30
2018-03-26T09:11:23.054Z,27.97
2018-03-26T09:13:50.290Z,28.60
2018-03-26T09:16:17.630Z,27.93
2018-03-26T09:18:44.855Z,28.97
2018-03-26T09:21:12.093Z,28.33
2018-03-26T09:23:39.314Z,29.90
2018-03-26T09:26:06.547Z,29.10
2018-03-26T09:28:33.952Z,29.60
2018-03-26T09:31:01.170Z,27.60
2018-03-26T09:33:28.421Z,27.13
2018-03-26T09:35:55.654Z,27.40
2018-03-26T09:38:22.874Z,29.00
2018-03-26T09:40:50.087Z,27.37
2018-03-26T09:43:17.322Z,24.83
2018-03-26T09:45:44.542Z,27.43
2018-03-26T09:48:11.794Z,29.80
2018-03-26T09:50:39.010Z,29.60
2018-03-26T09:53:08.079Z,33.13
2018-03-26T09:55:35.320Z,28.50
2018-03-26T09:58:02.546Z,31.30
2018-03-26T10:00:35.252Z,30.43
2018-03-26T10:03:02.495Z,33.47
2018-03-26T10:05:29.829Z,32.93
2018-03-26T10:07:57.038Z,31.27
2018-03-26T10:10:24.289Z,28.10
2018-03-26T10:12:51.513Z,28.47
2018-03-26T10:15:18.904Z,30.80
2018-03-26T10:17:46.960Z,31.63
2018-03-26T10:20:14.322Z,32.10
2018-03-26T10:22:41.541Z,25.53
2018-03-26T10:25:15.482Z,29.10
2018-03-26T10:27:42.885Z,27.77
2018-03-26T10:30:17.591Z,30.87
2018-03-26T10:32:44.850Z,30.50
2018-03-26T10:35:12.068Z,28.50
2018-03-26T10:37:39.286Z,25.90
2018-03-26T10:40:10.201Z,27.57
2018-03-26T10:42:37.432Z,27.20
2018-03-26T10:45:06.868Z,25.70
2018-03-26T10:47:35.896Z,25.90
2018-03-26T10:50:03.106Z,25.37
2018-03-26T10:52:30.331Z,27.47
2018-03-26T10:54:57.557Z,24.83
2018-03-26T10:57:24.793Z,26.27
2018-03-26T10:59:52.017Z,26.80
2018-03-26T11:02:19.250Z,24.80
2018-03-26T11:04:46.484Z,25.83
2018-03-26T11:07:13.712Z,24.93
2018-03-26T11:09:40.964Z,25.07
2018-03-26T11:12:08.276Z,24.17
2018-03-26T11:14:35.532Z,27.47
2018-03-26T11:17:02.757Z,24.30
2018-03-26T11:19:29.989Z,26.47
2018-03-26T11:21:57.236Z,22.70
2018-03-26T11:24:24.471Z,21.60
2018-03-26T11:26:51.729Z,25.67
2018-03-26T11:29:19.018Z,24.30
2018-03-26T11:31:46.247Z,25.20
2018-03-26T11:34:13.473Z,29.10
2018-03-26T11:36:40.718Z,27.20
2018-03-26T11:39:08.165Z,26.27
2018-03-26T11:41:35.410Z,28.77
2018-03-26T11:44:02.671Z,28.43
2018-03-26T11:46:30.081Z,27.60
2018-03-26T11:48:57.315Z,28.40
2018-03-26T11:51:24.538Z,29.10
2018-03-26T11:53:51.968Z,28.00
2018-03-26T11:56:19.193Z,30.87
2018-03-26T11:58:46.433Z,29.30
2018-03-26T12:01:13.488Z,29.10
2018-03-26T12:03:40.726Z,30.47
2018-03-26T12:06:07.965Z,30.43
2018-03-26T12:08:35.268Z,31.90
2018-03-26T12:11:02.522Z,31.13
2018-03-26T12:13:29.881Z,31.33
2018-03-26T12:15:57.108Z,31.33
2018-03-26T12:18:24.321Z,32.80
2018-03-26T12:20:56.142Z,33.87
2018-03-26T12:23:29.002Z,34.00
2018-03-26T12:25:56.242Z,31.67
2018-03-26T12:28:29.126Z,30.77
2018-03-26T12:30:56.395Z,34.07
2018-03-26T12:33:23.637Z,29.60
2018-03-26T12:35:51.462Z,31.57
2018-03-26T12:38:18.740Z,33.00
2018-03-26T12:40:51.307Z,38.17
2018-03-26T12:43:18.543Z,30.80
2018-03-26T12:45:51.421Z,33.00
2018-03-26T12:48:18.674Z,30.70
2018-03-26T12:50:51.538Z,32.03
2018-03-26T12:53:18.426Z,33.37
2018-03-26T12:55:45.648Z,33.23
2018-03-26T12:58:18.439Z,28.10
2018-03-26T13:00:51.438Z,32.70
2018-03-26T13:03:18.703Z,31.40
2018-03-26T13:05:46.131Z,33.67
2018-03-26T13:08:13.352Z,30.87
2018-03-26T13:10:40.577Z,31.60
2018-03-26T13:13:07.614Z,31.00
2018-03-26T13:15:34.834Z,30.60
2018-03-26T13:18:02.066Z,27.93
2018-03-26T13:20:29.301Z,30.10
2018-03-26T13:22:56.551Z,32.43
2018-03-26T13:25:23.794Z,31.70
2018-03-26T13:27:51.022Z,30.30
2018-03-26T13:30:18.073Z,31.07
2018-03-26T13:32:45.326Z,32.33
2018-03-26T13:35:12.561Z,32.60
2018-03-26T13:37:39.786Z,31.63
2018-03-26T13:40:08.104Z,30.20
2018-03-26T13:42:35.330Z,31.90
2018-03-26T13:45:02.574Z,30.63
2018-03-26T13:47:30.004Z,30.20
2018-03-26T13:49:57.524Z,30.83
2018-03-26T13:52:24.770Z,31.33
2018-03-26T13:54:51.997Z,29.80
2018-03-26T13:57:19.233Z,28.30
2018-03-26T13:59:46.275Z,29.43
2018-03-26T14:02:13.506Z,30.87
2018-03-26T14:04:40.732Z,28.60
2018-03-26T14:07:07.956Z,29.67
2018-03-26T14:09:40.628Z,29.40
2018-03-26T14:12:13.382Z,27.10
2018-03-26T14:14:46.090Z,30.30
2018-03-26T14:17:18.913Z,30.73
2018-03-26T14:19:46.133Z,28.30
2018-03-26T14:22:13.385Z,28.80
2018-03-26T14:24:40.621Z,29.57
2018-03-26T14:27:07.945Z,28.30
2018-03-26T14:29:35.221Z,27.40
2018-03-26T14:32:02.597Z,27.47
2018-03-26T14:34:29.825Z,29.90
2018-03-26T14:36:57.060Z,27.60
2018-03-26T14:39:24.329Z,28.70
2018-03-26T14:41:51.575Z,27.80
2018-03-26T14:44:18.805Z,29.40
2018-03-26T14:46:46.094Z,26.53
2018-03-26T14:49:13.140Z,27.90
2018-03-26T14:51:40.382Z,29.57
2018-03-26T14:54:07.792Z,31.60
2018-03-26T14:56:35.042Z,28.50
2018-03-26T14:59:02.275Z,28.50
2018-03-26T15:01:29.498Z,26.70
2018-03-26T15:04:01.661Z,26.60
2018-03-26T15:06:28.888Z,29.43
2018-03-26T15:08:56.171Z,27.70
2018-03-26T15:11:23.396Z,28.47
2018-03-26T15:13:50.624Z,26.40
2018-03-26T15:16:17.858Z,27.47
2018-03-26T15:18:45.078Z,27.33
2018-03-26T15:21:12.123Z,27.23
2018-03-26T15:23:39.337Z,26.83
2018-03-26T15:26:06.570Z,28.90
2018-03-26T15:28:33.797Z,28.67
2018-03-26T15:31:01.030Z,30.73
2018-03-26T15:33:28.267Z,28.97
2018-03-26T15:35:55.506Z,27.13
2018-03-26T15:38:22.718Z,28.27
2018-03-26T15:40:49.986Z,28.07
2018-03-26T15:43:17.242Z,26.90
2018-03-26T15:45:44.485Z,27.77
2018-03-26T15:48:11.918Z,27.53
2018-03-26T15:50:39.247Z,24.77
2018-03-26T15:53:06.145Z,27.97
2018-03-26T15:55:33.378Z,27.60
2018-03-26T15:58:00.643Z,28.03
2018-03-26T16:00:27.872Z,27.07
2018-03-26T16:05:58.492Z,28.03
2018-03-26T16:08:25.762Z,27.00
2018-03-26T16:10:54.010Z,27.07
2018-03-26T16:13:21.278Z,26.70
2018-03-26T16:15:48.561Z,28.50
2018-03-26T16:18:15.860Z,26.10
2018-03-26T16:20:43.140Z,25.80
2018-03-26T16:23:10.407Z,28.13
2018-03-26T16:25:37.676Z,28.43
2018-03-26T16:28:04.956Z,28.00
2018-03-26T16:30:32.504Z,27.60
2018-03-26T16:32:59.771Z,27.67
2018-03-26T16:35:27.057Z,25.53
2018-03-26T16:37:54.345Z,28.30
2018-03-26T16:40:21.621Z,27.40
2018-03-26T16:42:48.579Z,27.97
2018-03-26T16:45:15.842Z,26.63
2018-03-26T16:47:43.137Z,27.47
2018-03-26T16:50:10.413Z,25.87
2018-03-26T16:52:37.695Z,24.87
2018-03-26T16:55:05.074Z,27.40
2018-03-26T16:57:32.356Z,26.27
2018-03-26T17:00:00.244Z,27.40
2018-03-26T17:02:27.623Z,26.70
2018-03-26T17:04:55.117Z,28.60
2018-03-26T17:07:22.439Z,28.63
2018-03-26T17:09:49.714Z,26.57
2018-03-26T17:12:17.143Z,26.37
2018-03-26T17:14:44.422Z,28.93
2018-03-26T17:17:11.689Z,28.80
2018-03-26T17:19:38.982Z,29.47
2018-03-26T17:22:06.403Z,27.77
2018-03-26T17:24:33.844Z,29.27
2018-03-26T17:27:01.161Z,30.63
2018-03-26T17:29:28.454Z,28.77
2018-03-26T17:31:56.048Z,27.50
2018-03-26T17:34:23.326Z,26.27
2018-03-26T17:36:50.586Z,28.27
2018-03-26T17:39:17.886Z,28.13
2018-03-26T17:41:45.157Z,26.60
2018-03-26T17:44:12.478Z,26.77
2018-03-26T17:46:39.904Z,28.30
2018-03-26T17:49:07.188Z,26.43
2018-03-26T17:51:34.447Z,27.80
2018-03-26T17:54:01.732Z,28.30
2018-03-26T17:56:29.032Z,26.93
2018-03-26T17:58:56.332Z,28.00
2018-03-26T18:01:23.611Z,29.40
2018-03-26T18:03:50.874Z,31.00
2018-03-26T18:06:18.200Z,28.47
2018-03-26T18:08:45.474Z,31.37
2018-03-26T18:11:12.763Z,27.63
2018-03-26T18:13:40.025Z,30.47
2018-03-26T18:16:06.977Z,27.47
2018-03-26T18:18:34.255Z,27.27
2018-03-26T18:21:01.522Z,27.80
2018-03-26T18:23:28.830Z,29.30
2018-03-26T18:25:56.118Z,29.97
2018-03-26T18:28:23.392Z,28.00
2018-03-26T18:30:50.875Z,32.30
2018-03-26T18:33:18.142Z,32.00
2018-03-26T18:35:45.498Z,28.10
2018-03-26T18:38:12.798Z,29.67
2018-03-26T18:40:40.095Z,27.50
2018-03-26T18:43:07.377Z,29.23
2018-03-26T18:45:34.644Z,29.40
2018-03-26T18:48:02.001Z,27.87
2018-03-26T18:50:29.292Z,29.30
2018-03-26T18:52:56.564Z,27.53
2018-03-26T18:55:23.866Z,28.70
2018-03-26T18:57:51.169Z,28.37
2018-03-26T19:00:18.506Z,30.20
2018-03-26T19:02:45.441Z,32.50
2018-03-26T19:05:12.720Z,25.50
2018-03-26T19:07:40.002Z,30.50
2018-03-26T19:10:14.257Z,32.43
2018-03-26T19:12:41.517Z,29.90
2018-03-26T19:15:14.926Z,28.20
2018-03-26T19:17:42.229Z,29.07
2018-03-26T19:20:13.561Z,27.30
2018-03-26T19:22:40.858Z,29.27
2018-03-26T19:25:09.398Z,26.83
2018-03-26T19:27:37.241Z,27.50
2018-03-26T19:30:05.102Z,28.60
2018-03-26T19:32:38.241Z,29.23
2018-03-26T19:35:14.283Z,28.03
2018-03-26T19:37:41.551Z,29.53
2018-03-26T19:40:14.120Z,28.23
2018-03-26T19:42:41.398Z,29.47
2018-03-26T19:45:15.144Z,29.20
2018-03-26T19:47:42.434Z,27.50
2018-03-26T19:50:10.527Z,28.50
2018-03-26T19:52:37.833Z,28.17
2018-03-26T19:55:10.147Z,30.57
2018-03-26T19:57:37.673Z,30.40
2018-03-26T20:00:10.306Z,29.77
2018-03-26T20:02:37.568Z,28.83
2018-03-26T20:05:10.862Z,30.80
2018-03-26T20:07:38.324Z,27.83
2018-03-26T20:10:09.613Z,28.60
2018-03-26T20:12:36.902Z,29.07
2018-03-26T20:15:04.559Z,28.73
2018-03-26T20:17:31.896Z,30.93
2018-03-26T20:19:59.210Z,30.77
2018-03-26T20:22:26.486Z,31.97
2018-03-26T20:24:53.428Z,31.20
2018-03-26T20:27:20.701Z,28.73
2018-03-26T20:29:47.990Z,30.90
2018-03-26T20:32:15.457Z,31.27
2018-03-26T20:34:42.769Z,30.60
2018-03-26T20:37:10.053Z,30.33
2018-03-26T20:39:37.366Z,30.80
2018-03-26T20:42:04.691Z,29.93
2018-03-26T20:44:31.975Z,30.90
2018-03-26T20:46:59.249Z,30.90
2018-03-26T20:49:26.531Z,30.47
2018-03-26T20:51:53.892Z,30.23
2018-03-26T20:54:21.166Z,31.10
2018-03-26T20:56:48.447Z,29.93
2018-03-26T20:59:15.757Z,32.33
2018-03-26T21:01:43.050Z,33.83
2018-03-26T21:04:10.315Z,29.10
2018-03-26T21:06:37.589Z,31.37
2018-03-26T21:09:04.548Z,33.00
2018-03-26T21:11:34.720Z,30.50
2018-03-26T21:14:43.804Z,32.93
2018-03-26T21:17:11.096Z,32.80
2018-03-26T21:19:38.370Z,33.83
2018-03-26T21:22:05.671Z,33.83
2018-03-26T21:24:32.985Z,34.00
2018-03-26T21:27:00.446Z,33.47
2018-03-26T21:29:27.719Z,32.10
2018-03-26T21:31:54.993Z,32.60
2018-03-26T21:34:22.270Z,32.33
2018-03-26T21:36:49.541Z,31.60
2018-03-26T21:39:16.860Z,31.33
2018-03-26T21:41:44.138Z,32.20
2018-03-26T21:44:11.412Z,30.63
2018-03-26T21:46:38.685Z,32.10
2018-03-26T21:49:05.399Z,32.83
2018-03-26T21:51:32.814Z,31.70
2018-03-26T21:54:00.094Z,31.10
2018-03-26T21:56:27.359Z,33.00
2018-03-26T21:58:54.635Z,33.47
2018-03-26T22:01:21.909Z,32.43
2018-03-26T22:03:49.196Z,30.33
2018-03-26T22:06:16.503Z,32.40
2018-03-26T22:08:43.813Z,34.60
2018-03-26T22:11:11.367Z,32.23
2018-03-26T22:13:38.638Z,33.23
2018-03-26T22:16:06.033Z,33.17
2018-03-26T22:18:33.298Z,34.63
2018-03-26T22:21:00.587Z,33.80
2018-03-26T22:23:28.078Z,35.67
2018-03-26T22:25:55.954Z,33.07
2018-03-26T22:28:23.295Z,37.50
2018-03-26T22:30:50.608Z,35.27
2018-03-26T22:33:17.894Z,37.67
2018-03-26T22:35:45.169Z,35.50
2018-03-26T22:38:12.466Z,39.43
2018-03-26T22:40:39.757Z,38.77
2018-03-26T22:43:07.025Z,37.70
2018-03-26T22:45:34.319Z,38.10
2018-03-26T22:48:01.613Z,39.90
2018-03-26T22:50:28.885Z,37.67
2018-03-26T22:52:56.163Z,38.57
2018-03-26T22:55:23.430Z,39.20
2018-03-26T22:57:50.686Z,38.97
2018-03-26T23:00:17.967Z,38.83
2018-03-26T23:02:45.269Z,39.73
2018-03-26T23:05:15.810Z,37.60
2018-03-26T23:07:43.083Z,38.40
2018-03-26T23:10:11.945Z,39.70
2018-03-26T23:12:39.208Z,40.93
2018-03-26T23:15:13.943Z,38.93
2018-03-26T23:17:41.207Z,39.77
2018-03-26T23:20:08.490Z,43.23
2018-03-26T23:22:41.404Z,40.30
2018-03-26T23:25:12.774Z,41.47
2018-03-26T23:27:40.045Z,44.33
2018-03-26T23:30:14.589Z,40.80
2018-03-26T23:32:41.880Z,40.07
2018-03-26T23:35:09.214Z,40.97
2018-03-26T23:37:36.506Z,40.87
2018-03-26T23:40:03.458Z,41.73
2018-03-26T23:42:30.721Z,43.40
2018-03-26T23:44:57.984Z,42.90
2018-03-26T23:47:25.248Z,41.97
2018-03-26T23:49:52.522Z,42.27
2018-03-26T23:52:19.808Z,43.63
2018-03-26T23:54:47.111Z,44.40
2018-03-26T23:57:14.411Z,41.73
2018-03-26T23:59:41.705Z,43.27
